Time;durP1;ratioP1;P1;durP2;ratioP2;P2;SDS_P1;SDS_P2;PMS_P1;PMS_P2;Temp;Humidity;BMP_temperature;BMP_pressure;BME280_temperature;BME280_humidity;BME280_pressure;Samples;Min_cycle;Max_cycle;Signal;HPM_P1;HPM_P2
2021/11/04 00:00:59;;;;;;;3.70;1.90;;;;;;;;;;5067075;28;20020;-64
2021/11/04 00:03:27;;;;;;;3.60;1.80;;;;;;;;;;5067032;28;20016;-63
2021/11/04 00:05:53;;;;;;;4.13;2.23;;;;;;;;;;5066607;28;20027;-64
2021/11/04 00:08:22;;;;;;;5.63;2.40;;;;;;;;;;5070719;28;20048;-63
2021/11/04 00:10:49;;;;;;;10.27;2.10;;;;;;;;;;5071769;28;20055;-64
2021/11/04 00:13:16;;;;;;;3.50;2.00;;;;;;;;;;5071946;28;20040;-63
2021/11/04 00:15:42;;;;;;;15.83;2.50;;;;;;;;;;5071663;28;20359;-64
2021/11/04 00:18:10;;;;;;;3.73;2.20;;;;;;;;;;5071799;28;20066;-64
2021/11/04 00:20:37;;;;;;;9.67;2.27;;;;;;;;;;5067421;28;20040;-63
2021/11/04 00:23:04;;;;;;;4.20;2.23;;;;;;;;;;5066820;28;20113;-63
2021/11/04 00:25:31;;;;;;;8.47;2.77;;;;;;;;;;5065875;28;20036;-63
2021/11/04 00:27:58;;;;;;;14.53;2.70;;;;;;;;;;5066557;28;20040;-63
2021/11/04 00:30:25;;;;;;;6.10;2.80;;;;;;;;;;5071012;28;20021;-64
2021/11/04 00:32:54;;;;;;;9.23;3.00;;;;;;;;;;5075460;28;20370;-63
2021/11/04 00:35:21;;;;;;;8.20;2.47;;;;;;;;;;5075106;28;20024;-64
2021/11/04 00:37:48;;;;;;;7.57;2.80;;;;;;;;;;5074735;28;20033;-63
2021/11/04 00:40:17;;;;;;;4.80;2.37;;;;;;;;;;5074840;28;20036;-63
2021/11/04 00:42:44;;;;;;;8.03;2.90;;;;;;;;;;5071000;28;20035;-64
2021/11/04 00:45:11;;;;;;;7.37;3.03;;;;;;;;;;5069724;28;20025;-63
2021/11/04 00:47:38;;;;;;;4.63;2.50;;;;;;;;;;5069841;28;20024;-63
2021/11/04 00:50:06;;;;;;;7.53;2.77;;;;;;;;;;5069772;28;20073;-63
2021/11/04 00:52:33;;;;;;;6.53;2.30;;;;;;;;;;5073569;28;20055;-63
2021/11/04 00:55:00;;;;;;;10.23;2.80;;;;;;;;;;5074287;28;20024;-63
2021/11/04 00:57:27;;;;;;;8.27;2.70;;;;;;;;;;5074288;28;20562;-63
2021/11/04 00:59:54;;;;;;;6.10;3.27;;;;;;;;;;5074864;28;20033;-63
2021/11/04 01:02:21;;;;;;;10.27;3.47;;;;;;;;;;5074614;28;20032;-63
2021/11/04 01:04:47;;;;;;;6.60;3.00;;;;;;;;;;5070987;28;20464;-64
2021/11/04 01:07:14;;;;;;;8.37;3.43;;;;;;;;;;5069508;28;20103;-63
2021/11/04 01:09:41;;;;;;;12.33;3.50;;;;;;;;;;5069679;28;20025;-63
2021/11/04 01:12:08;;;;;;;10.63;3.63;;;;;;;;;;5068978;28;20364;-63
2021/11/04 01:14:35;;;;;;;7.43;3.47;;;;;;;;;;5072326;28;20030;-61
2021/11/04 01:17:05;;;;;;;6.73;3.43;;;;;;;;;;5074659;28;20792;-61
2021/11/04 01:19:32;;;;;;;20.37;9.07;;;;;;;;;;5074486;28;20073;-62
2021/11/04 01:21:59;;;;;;;20.27;7.77;;;;;;;;;;5074128;28;20056;-63
2021/11/04 01:24:26;;;;;;;14.43;5.67;;;;;;;;;;5074412;28;20035;-63
2021/11/04 01:26:54;;;;;;;14.13;6.87;;;;;;;;;;5070448;28;20040;-63
2021/11/04 01:29:20;;;;;;;17.37;7.77;;;;;;;;;;5069156;28;20483;-61
2021/11/04 01:31:49;;;;;;;15.87;6.97;;;;;;;;;;5068965;28;20039;-63
2021/11/04 01:34:16;;;;;;;11.53;4.27;;;;;;;;;;5069134;28;20029;-61
2021/11/04 01:36:42;;;;;;;6.67;4.37;;;;;;;;;;5072050;28;20025;-63
2021/11/04 01:39:09;;;;;;;12.23;5.77;;;;;;;;;;5073262;28;20036;-63
2021/11/04 01:41:36;;;;;;;23.57;9.13;;;;;;;;;;5073886;28;20027;-63
2021/11/04 01:44:03;;;;;;;22.10;6.87;;;;;;;;;;5072797;28;20021;-63
2021/11/04 01:46:32;;;;;;;20.00;6.47;;;;;;;;;;5073936;28;20075;-63
2021/11/04 01:49:00;;;;;;;20.27;8.37;;;;;;;;;;5070428;28;20029;-63
2021/11/04 01:51:27;;;;;;;16.77;5.87;;;;;;;;;;5068762;28;20032;-63
2021/11/04 01:53:54;;;;;;;15.80;7.47;;;;;;;;;;5068582;28;20056;-62
2021/11/04 01:56:20;;;;;;;21.50;7.43;;;;;;;;;;5068756;28;20030;-62
2021/11/04 01:58:47;;;;;;;17.77;6.93;;;;;;;;;;5071074;28;20029;-63
2021/11/04 02:01:16;;;;;;;9.87;6.10;;;;;;;;;;5073733;28;20028;-63
2021/11/04 02:03:42;;;;;;;18.33;8.00;;;;;;;;;;5073231;28;20025;-63
2021/11/04 02:06:16;;;;;;;14.43;7.40;;;;;;;;;;5073455;28;20054;-63
2021/11/04 02:08:46;;;;;;;16.65;6.50;;;;;;;;;;5073938;28;20387;-63
2021/11/04 02:11:14;;;;;;;15.13;7.37;;;;;;;;;;5051900;28;20032;-63
2021/11/04 02:13:58;;;;;;;17.63;7.60;;;;;;;;;;5068085;28;20032;-62
2021/11/04 02:16:25;;;;;;;15.10;7.87;;;;;;;;;;5068353;28;20383;-63
2021/11/04 02:18:54;;;;;;;17.47;9.30;;;;;;;;;;5049727;28;20246;-62
2021/11/04 02:21:40;;;;;;;14.47;7.13;;;;;;;;;;5071335;28;20041;-63
2021/11/04 02:24:14;;;;;;;20.43;10.87;;;;;;;;;;5055459;28;20032;-63
2021/11/04 02:26:42;;;;;;;23.58;10.27;;;;;;;;;;5072971;28;20066;-62
2021/11/04 02:29:09;;;;;;;14.20;7.67;;;;;;;;;;5072993;28;20357;-62
2021/11/04 02:31:36;;;;;;;12.57;5.97;;;;;;;;;;5073059;28;20029;-62
2021/11/04 02:34:03;;;;;;;13.97;6.33;;;;;;;;;;5067458;28;20070;-62
2021/11/04 02:36:30;;;;;;;12.93;5.20;;;;;;;;;;5068137;28;20940;-62
2021/11/04 02:38:58;;;;;;;13.73;5.80;;;;;;;;;;5067595;28;20044;-62
2021/11/04 02:41:26;;;;;;;10.30;5.70;;;;;;;;;;5067639;28;20017;-63
2021/11/04 02:43:53;;;;;;;11.20;5.40;;;;;;;;;;5071778;28;20032;-63
2021/11/04 02:46:20;;;;;;;13.20;6.40;;;;;;;;;;5072581;28;20086;-62
2021/11/04 02:48:47;;;;;;;10.67;4.33;;;;;;;;;;5073069;28;20031;-62
2021/11/04 02:51:14;;;;;;;7.93;4.37;;;;;;;;;;5072676;28;20108;-63
2021/11/04 02:53:46;;;;;;;16.77;11.87;;;;;;;;;;5071759;28;20021;-63
2021/11/04 02:56:13;;;;;;;12.90;6.07;;;;;;;;;;5068154;28;20040;-62
2021/11/04 02:58:39;;;;;;;12.37;5.87;;;;;;;;;;5049409;28;20090;-63
2021/11/04 03:01:08;;;;;;;7.93;4.87;;;;;;;;;;5067276;28;20024;-62
2021/11/04 03:03:35;;;;;;;11.63;5.73;;;;;;;;;;5067271;28;20040;-62
2021/11/04 03:06:02;;;;;;;11.83;3.80;;;;;;;;;;5071637;28;20513;-63
2021/11/04 03:08:30;;;;;;;4.87;3.57;;;;;;;;;;5054991;28;20032;-62
2021/11/04 03:10:57;;;;;;;11.60;4.80;;;;;;;;;;5072070;28;20564;-62
2021/11/04 03:13:24;;;;;;;8.93;4.40;;;;;;;;;;5071408;28;20090;-63
2021/11/04 03:15:54;;;;;;;7.77;4.13;;;;;;;;;;5054338;28;20031;-62
2021/11/04 03:18:24;;;;;;;9.37;3.63;;;;;;;;;;5067437;28;20697;-63
2021/11/04 03:20:53;;;;;;;6.30;3.50;;;;;;;;;;5067409;28;20103;-63
2021/11/04 03:23:20;;;;;;;10.00;3.80;;;;;;;;;;5066878;28;20031;-62
2021/11/04 03:25:48;;;;;;;10.73;4.13;;;;;;;;;;5067156;28;20028;-62
2021/11/04 03:28:17;;;;;;;8.63;3.50;;;;;;;;;;5071470;28;20059;-63
2021/11/04 03:30:44;;;;;;;9.03;3.83;;;;;;;;;;5071325;28;20037;-63
2021/11/04 03:33:12;;;;;;;9.37;4.40;;;;;;;;;;5071755;28;20073;-63
2021/11/04 03:35:42;;;;;;;9.97;4.13;;;;;;;;;;5072026;28;20032;-63
2021/11/04 03:38:12;;;;;;;9.50;3.80;;;;;;;;;;5072162;28;20111;-62
2021/11/04 03:40:40;;;;;;;11.20;4.00;;;;;;;;;;5049284;28;20127;-62
2021/11/04 03:43:07;;;;;;;9.70;4.13;;;;;;;;;;5048428;28;20021;-62
2021/11/04 03:45:38;;;;;;;10.40;3.67;;;;;;;;;;5067058;28;20039;-63
2021/11/04 03:48:06;;;;;;;10.67;3.97;;;;;;;;;;5066868;28;20024;-62
2021/11/04 03:50:37;;;;;;;6.80;3.50;;;;;;;;;;5071156;28;20021;-63
2021/11/04 03:53:06;;;;;;;7.37;3.60;;;;;;;;;;5054333;28;20036;-62
2021/11/04 03:55:33;;;;;;;7.57;2.93;;;;;;;;;;5072032;28;20025;-63
2021/11/04 03:58:02;;;;;;;5.47;3.00;;;;;;;;;;5071713;28;20028;-62
2021/11/04 04:00:29;;;;;;;14.27;4.37;;;;;;;;;;5071840;28;20035;-63
2021/11/04 04:02:56;;;;;;;8.87;3.97;;;;;;;;;;5049234;28;20036;-63
2021/11/04 04:05:31;;;;;;;6.83;3.43;;;;;;;;;;5067634;28;20031;-62
2021/11/04 04:07:57;;;;;;;;;;;;;;;;;;5071434;28;20102;-62
2021/11/04 04:10:26;;;;;;;6.73;2.73;;;;;;;;;;5070035;28;19951;-62
2021/11/04 04:12:53;;;;;;;6.47;3.17;;;;;;;;;;5057822;28;20035;-62
2021/11/04 04:15:22;;;;;;;6.40;3.13;;;;;;;;;;5075611;28;20368;-62
2021/11/04 04:17:55;;;;;;;4.03;2.77;;;;;;;;;;5058196;28;20029;-62
2021/11/04 04:20:21;;;;;;;8.50;3.70;;;;;;;;;;5075264;28;20099;-63
2021/11/04 04:22:52;;;;;;;10.23;4.00;;;;;;;;;;5075075;28;20028;-62
2021/11/04 04:25:21;;;;;;;8.57;3.63;;;;;;;;;;5053284;28;20158;-62
2021/11/04 04:27:50;;;;;;;6.80;3.03;;;;;;;;;;5069984;28;20063;-62
2021/11/04 04:30:19;;;;;;;4.83;2.90;;;;;;;;;;5069920;28;20040;-63
2021/11/04 04:32:45;;;;;;;11.60;3.80;;;;;;;;;;5070212;28;20056;-62
2021/11/04 04:35:12;;;;;;;6.27;3.07;;;;;;;;;;5075285;28;20081;-62
2021/11/04 04:37:39;;;;;;;5.93;2.73;;;;;;;;;;5074486;28;20375;-62
2021/11/04 04:40:12;;;;;;;5.07;3.03;;;;;;;;;;5075253;28;20033;-62
2021/11/04 04:42:40;;;;;;;5.77;3.70;;;;;;;;;;5074938;28;20037;-63
2021/11/04 04:45:11;;;;;;;8.03;3.40;;;;;;;;;;5074596;28;20028;-62
2021/11/04 04:47:37;;;;;;;7.20;3.73;;;;;;;;;;5069903;28;20115;-62
2021/11/04 04:50:10;;;;;;;4.90;2.97;;;;;;;;;;5069722;28;20145;-62
2021/11/04 04:52:37;;;;;;;4.83;2.73;;;;;;;;;;5069837;28;20497;-62
2021/11/04 04:55:05;;;;;;;6.93;3.90;;;;;;;;;;5069932;28;20032;-62
2021/11/04 04:57:33;;;;;;;4.80;3.17;;;;;;;;;;5074722;28;20020;-63
2021/11/04 05:00:01;;;;;;;10.17;4.07;;;;;;;;;;5057076;28;20513;-62
2021/11/04 05:02:28;;;;;;;7.30;3.07;;;;;;;;;;5074525;28;20063;-62
2021/11/04 05:04:58;;;;;;;5.20;3.23;;;;;;;;;;5074477;28;20027;-62
2021/11/04 05:07:26;;;;;;;10.07;3.33;;;;;;;;;;5056175;28;20040;-62
2021/11/04 05:09:54;;;;;;;6.80;3.57;;;;;;;;;;5051541;28;20025;-62
2021/11/04 05:12:21;;;;;;;9.67;3.87;;;;;;;;;;5051605;28;20497;-62
2021/11/04 05:14:47;;;;;;;6.93;3.93;;;;;;;;;;5069386;28;20048;-62
2021/11/04 05:17:15;;;;;;;8.73;4.00;;;;;;;;;;5067985;28;20537;-62
2021/11/04 05:19:41;;;;;;;6.57;3.53;;;;;;;;;;5055723;28;20102;-62
2021/11/04 05:22:11;;;;;;;6.70;3.53;;;;;;;;;;5074273;28;20016;-62
2021/11/04 05:24:38;;;;;;;11.93;4.53;;;;;;;;;;5056716;28;20483;-61
2021/11/04 05:27:06;;;;;;;5.97;3.77;;;;;;;;;;5073409;28;20024;-62
2021/11/04 05:29:33;;;;;;;7.33;3.50;;;;;;;;;;5055580;28;20078;-63
2021/11/04 05:32:01;;;;;;;8.47;4.77;;;;;;;;;;5069048;28;20095;-61
2021/11/04 05:34:28;;;;;;;8.43;3.30;;;;;;;;;;5069133;28;20099;-62
2021/11/04 05:36:54;;;;;;;6.97;3.50;;;;;;;;;;5069110;28;20647;-62
2021/11/04 05:39:21;;;;;;;5.67;3.37;;;;;;;;;;5069135;28;20501;-62
2021/11/04 05:41:48;;;;;;;4.60;2.87;;;;;;;;;;5074164;28;20020;-62
2021/11/04 05:44:15;;;;;;;8.60;3.37;;;;;;;;;;5074424;28;20375;-61
2021/11/04 05:46:43;;;;;;;12.67;3.77;;;;;;;;;;5073859;28;20079;-62
2021/11/04 05:49:10;;;;;;;7.53;4.17;;;;;;;;;;5073298;28;20021;-62
2021/11/04 05:51:38;;;;;;;5.93;4.30;;;;;;;;;;5073374;28;20064;-61
2021/11/04 05:54:05;;;;;;;5.60;3.60;;;;;;;;;;5068677;28;20093;-62
2021/11/04 05:56:32;;;;;;;7.13;3.97;;;;;;;;;;5068148;28;20359;-62
2021/11/04 05:58:59;;;;;;;7.30;4.50;;;;;;;;;;5068580;28;20056;-62
2021/11/04 06:01:28;;;;;;;5.60;3.50;;;;;;;;;;5068665;28;20031;-62
2021/11/04 06:03:55;;;;;;;6.97;4.47;;;;;;;;;;5072983;28;20032;-61
2021/11/04 06:06:22;;;;;;;5.47;3.10;;;;;;;;;;5073201;28;20380;-62
2021/11/04 06:08:49;;;;;;;5.23;3.60;;;;;;;;;;5073536;28;20025;-62
2021/11/04 06:11:16;;;;;;;5.90;3.40;;;;;;;;;;5073601;28;20105;-62
2021/11/04 06:13:42;;;;;;;5.73;3.60;;;;;;;;;;5073394;28;20475;-61
2021/11/04 06:16:13;;;;;;;10.03;3.77;;;;;;;;;;5068073;28;20025;-61
2021/11/04 06:18:45;;;;;;;12.90;5.90;;;;;;;;;;5068021;28;20411;-61
2021/11/04 06:21:14;;;;;;;5.57;3.70;;;;;;;;;;5068154;28;20029;-61
2021/11/04 06:23:42;;;;;;;4.43;3.13;;;;;;;;;;5068322;28;20478;-61
2021/11/04 06:26:08;;;;;;;9.03;3.97;;;;;;;;;;5072891;28;20474;-61
2021/11/04 06:28:35;;;;;;;7.60;3.53;;;;;;;;;;5073168;28;20052;-61
2021/11/04 06:31:02;;;;;;;5.33;3.57;;;;;;;;;;5073111;28;20115;-61
2021/11/04 06:33:29;;;;;;;11.60;4.07;;;;;;;;;;5072777;28;20059;-61
2021/11/04 06:35:56;;;;;;;6.20;3.90;;;;;;;;;;5072409;28;20235;-61
2021/11/04 06:38:23;;;;;;;8.77;3.80;;;;;;;;;;5067765;28;20029;-61
2021/11/04 06:40:50;;;;;;;7.53;4.00;;;;;;;;;;5067955;28;20059;-61
2021/11/04 06:43:17;;;;;;;7.20;3.90;;;;;;;;;;5067954;28;20030;-61
2021/11/04 06:45:48;;;;;;;8.77;3.70;;;;;;;;;;5067448;28;20025;-61
2021/11/04 06:48:18;;;;;;;6.67;3.97;;;;;;;;;;5072284;28;20020;-61
2021/11/04 06:50:46;;;;;;;8.43;3.20;;;;;;;;;;5073527;28;20055;-61
2021/11/04 06:53:13;;;;;;;8.47;3.80;;;;;;;;;;5072755;28;20043;-61
2021/11/04 06:55:40;;;;;;;5.40;3.33;;;;;;;;;;5072341;28;20020;-61
2021/11/04 06:58:14;;;;;;;5.83;3.77;;;;;;;;;;5072353;28;20044;-61
2021/11/04 07:00:42;;;;;;;5.60;3.50;;;;;;;;;;5067163;28;20029;-62
2021/11/04 07:03:15;;;;;;;9.27;4.67;;;;;;;;;;5067678;28;20024;-61
2021/11/04 07:05:45;;;;;;;9.37;5.40;;;;;;;;;;5067272;28;20490;-62
2021/11/04 07:08:23;;;;;;;7.33;4.63;;;;;;;;;;5067446;28;20029;-62
2021/11/04 07:10:57;;;;;;;6.87;4.20;;;;;;;;;;5072118;28;20055;-61
2021/11/04 07:13:25;;;;;;;6.50;3.93;;;;;;;;;;5072457;28;20025;-61
2021/11/04 07:15:53;;;;;;;7.00;4.23;;;;;;;;;;5072174;28;20024;-61
2021/11/04 07:18:20;;;;;;;6.93;4.50;;;;;;;;;;5072441;28;20115;-61
2021/11/04 07:20:48;;;;;;;9.17;3.83;;;;;;;;;;5071224;28;20024;-62
2021/11/04 07:23:18;;;;;;;6.10;4.10;;;;;;;;;;5067326;28;20031;-62
2021/11/04 07:25:47;;;;;;;9.07;4.50;;;;;;;;;;5066997;28;20032;-61
2021/11/04 07:28:19;;;;;;;6.77;4.20;;;;;;;;;;5047341;28;20025;-61
2021/11/04 07:30:46;;;;;;;6.60;3.57;;;;;;;;;;5047913;28;20032;-61
2021/11/04 07:33:17;;;;;;;7.73;4.50;;;;;;;;;;5052217;28;20091;-61
2021/11/04 07:35:44;;;;;;;12.43;4.40;;;;;;;;;;5052060;28;20032;-62
2021/11/04 07:38:13;;;;;;;8.80;4.83;;;;;;;;;;5071828;28;20028;-61
2021/11/04 07:40:39;;;;;;;7.63;4.27;;;;;;;;;;5073638;28;20021;-61
2021/11/04 07:43:08;;;;;;;6.77;4.50;;;;;;;;;;5075047;28;20029;-61
2021/11/04 07:45:35;;;;;;;8.00;4.63;;;;;;;;;;5071059;28;20091;-61
2021/11/04 07:48:02;;;;;;;8.17;4.20;;;;;;;;;;5071011;28;20110;-62
2021/11/04 07:50:30;;;;;;;9.23;4.40;;;;;;;;;;5071226;28;20379;-61
2021/11/04 07:52:58;;;;;;;6.07;4.07;;;;;;;;;;5071203;28;20024;-61
2021/11/04 07:55:25;;;;;;;6.23;4.07;;;;;;;;;;5075931;28;20367;-61
2021/11/04 07:57:51;;;;;;;5.20;3.57;;;;;;;;;;5075730;28;20032;-61
2021/11/04 08:00:19;;;;;;;6.13;4.50;;;;;;;;;;5076145;28;20024;-61
2021/11/04 08:02:46;;;;;;;7.17;4.27;;;;;;;;;;5076040;28;20031;-62
2021/11/04 08:05:15;;;;;;;7.60;4.30;;;;;;;;;;5074772;28;20070;-63
2021/11/04 08:07:42;;;;;;;7.77;5.27;;;;;;;;;;5070491;28;20417;-61
2021/11/04 08:10:11;;;;;;;11.00;4.53;;;;;;;;;;5070763;28;20024;-61
2021/11/04 08:12:38;;;;;;;10.60;4.50;;;;;;;;;;5070822;28;20356;-61
2021/11/04 08:15:05;;;;;;;7.47;4.30;;;;;;;;;;5071072;28;20044;-61
2021/11/04 08:17:32;;;;;;;7.10;4.73;;;;;;;;;;5075270;28;20024;-62
2021/11/04 08:19:59;;;;;;;6.57;4.50;;;;;;;;;;5075556;28;20033;-61
2021/11/04 08:22:26;;;;;;;7.10;4.10;;;;;;;;;;5075025;28;20416;-61
2021/11/04 08:24:53;;;;;;;7.90;4.83;;;;;;;;;;5075634;28;20028;-61
2021/11/04 08:27:19;;;;;;;7.87;4.60;;;;;;;;;;5074587;28;20081;-61
2021/11/04 08:29:47;;;;;;;6.93;4.70;;;;;;;;;;5070319;28;20032;-61
2021/11/04 08:32:14;;;;;;;8.83;4.60;;;;;;;;;;5070542;28;20028;-61
2021/11/04 08:34:41;;;;;;;5.73;3.80;;;;;;;;;;5070454;28;20100;-61
2021/11/04 08:37:11;;;;;;;8.07;4.47;;;;;;;;;;5069920;28;20024;-61
2021/11/04 08:39:39;;;;;;;10.53;4.10;;;;;;;;;;5075369;28;20122;-61
2021/11/04 08:42:06;;;;;;;7.67;4.67;;;;;;;;;;5075203;28;20029;-61
2021/11/04 08:44:33;;;;;;;5.03;3.80;;;;;;;;;;5075229;28;20025;-61
2021/11/04 08:47:03;;;;;;;6.80;4.20;;;;;;;;;;5074829;28;20078;-61
2021/11/04 08:49:30;;;;;;;6.33;3.90;;;;;;;;;;5074303;28;20070;-61
2021/11/04 08:51:58;;;;;;;6.13;3.80;;;;;;;;;;5068315;28;20692;-61
2021/11/04 08:54:25;;;;;;;5.13;3.80;;;;;;;;;;5069716;28;20032;-61
2021/11/04 08:56:53;;;;;;;6.60;4.50;;;;;;;;;;5069619;28;20111;-62
2021/11/04 08:59:20;;;;;;;7.43;4.50;;;;;;;;;;5069993;28;20119;-61
2021/11/04 09:01:47;;;;;;;7.23;4.30;;;;;;;;;;5074776;28;20032;-61
2021/11/04 09:04:13;;;;;;;6.83;4.30;;;;;;;;;;5074929;28;20020;-61
2021/11/04 09:06:41;;;;;;;6.60;4.70;;;;;;;;;;5074172;28;20420;-61
2021/11/04 09:09:08;;;;;;;7.80;4.73;;;;;;;;;;5074833;28;20024;-63
2021/11/04 09:11:36;;;;;;;7.53;5.30;;;;;;;;;;5073565;28;20123;-62
2021/11/04 09:14:03;;;;;;;7.87;4.63;;;;;;;;;;5049615;28;20032;-61
2021/11/04 09:16:29;;;;;;;8.23;5.80;;;;;;;;;;5057261;28;20548;-61
2021/11/04 09:18:57;;;;;;;6.90;4.40;;;;;;;;;;5069137;28;20040;-61
2021/11/04 09:21:24;;;;;;;10.37;5.40;;;;;;;;;;5069235;28;20471;-61
2021/11/04 09:23:54;;;;;;;8.43;5.20;;;;;;;;;;5074517;28;20554;-61
2021/11/04 09:26:21;;;;;;;10.40;4.57;;;;;;;;;;5074309;28;20107;-61
2021/11/04 09:28:47;;;;;;;8.27;4.73;;;;;;;;;;5074109;28;20107;-62
2021/11/04 09:31:14;;;;;;;6.23;4.13;;;;;;;;;;5074423;28;20024;-61
2021/11/04 09:33:44;;;;;;;8.37;4.13;;;;;;;;;;5073978;28;20017;-61
2021/11/04 09:36:11;;;;;;;8.67;4.63;;;;;;;;;;5069020;28;20016;-61
2021/11/04 09:38:38;;;;;;;7.77;3.87;;;;;;;;;;5068706;28;20028;-61
2021/11/04 09:41:05;;;;;;;7.73;4.40;;;;;;;;;;5069302;28;20039;-61
2021/11/04 09:43:32;;;;;;;6.27;4.20;;;;;;;;;;5069092;28;20416;-61
2021/11/04 09:46:03;;;;;;;7.20;4.27;;;;;;;;;;5073912;28;20475;-61
2021/11/04 09:48:31;;;;;;;10.10;4.40;;;;;;;;;;5073681;28;20415;-62
2021/11/04 09:50:58;;;;;;;7.77;4.60;;;;;;;;;;5073181;28;20382;-62
2021/11/04 09:53:25;;;;;;;6.37;4.47;;;;;;;;;;5073850;28;20055;-61
2021/11/04 09:55:52;;;;;;;9.13;4.70;;;;;;;;;;5073565;28;20028;-61
2021/11/04 09:58:19;;;;;;;6.93;4.17;;;;;;;;;;5068253;28;20479;-61
2021/11/04 10:00:46;;;;;;;8.27;4.07;;;;;;;;;;5068671;28;20471;-61
2021/11/04 10:03:14;;;;;;;10.27;4.13;;;;;;;;;;5068273;28;20049;-61
2021/11/04 10:05:49;;;;;;;5.93;3.63;;;;;;;;;;5068216;28;20033;-61
2021/11/04 10:08:31;;;;;;;6.40;4.18;;;;;;;;;;5073214;28;20749;-61
2021/11/04 10:11:05;;;;;;;7.27;4.43;;;;;;;;;;5073575;28;20025;-61
2021/11/04 10:13:32;;;;;;;7.68;3.92;;;;;;;;;;5073361;28;20525;-61
2021/11/04 10:15:59;;;;;;;9.00;4.10;;;;;;;;;;5073203;28;20036;-61
2021/11/04 10:18:26;;;;;;;6.03;4.20;;;;;;;;;;5071879;28;20037;-60
2021/11/04 10:20:59;;;;;;;9.27;4.70;;;;;;;;;;5068190;28;20024;-61
2021/11/04 10:23:27;;;;;;;9.17;4.23;;;;;;;;;;5068300;28;20052;-61
2021/11/04 10:26:06;;;;;;;7.50;4.57;;;;;;;;;;5068128;28;20025;-60
2021/11/04 10:28:33;;;;;;;9.83;4.60;;;;;;;;;;5069073;28;20025;-61
2021/11/04 10:31:00;;;;;;;5.37;3.80;;;;;;;;;;5072955;28;20123;-61
2021/11/04 10:33:27;;;;;;;8.50;4.83;;;;;;;;;;5073130;28;20024;-61
2021/11/04 10:36:00;;;;;;;7.70;4.37;;;;;;;;;;5072921;28;20479;-61
2021/11/04 10:38:30;;;;;;;7.00;4.37;;;;;;;;;;5072447;28;20044;-61
2021/11/04 10:40:57;;;;;;;9.60;4.30;;;;;;;;;;5070410;28;20024;-61
2021/11/04 10:43:24;;;;;;;7.03;4.10;;;;;;;;;;5067867;28;20035;-61
2021/11/04 10:46:12;;;;;;;7.60;4.50;;;;;;;;;;5067829;28;20027;-61
2021/11/04 10:48:40;;;;;;;7.13;4.33;;;;;;;;;;5067497;28;20065;-61
2021/11/04 10:51:07;;;;;;;4.83;3.37;;;;;;;;;;5069153;28;20028;-60
2021/11/04 10:53:34;;;;;;;9.93;4.40;;;;;;;;;;5072683;28;20070;-61
2021/11/04 10:56:10;;;;;;;6.10;4.20;;;;;;;;;;5073062;28;20593;-61
2021/11/04 10:58:37;;;;;;;9.17;3.70;;;;;;;;;;5072618;28;20032;-61
2021/11/04 11:01:04;;;;;;;7.70;3.87;;;;;;;;;;5072218;28;20265;-61
2021/11/04 11:03:31;;;;;;;7.80;4.77;;;;;;;;;;5069512;28;20533;-61
2021/11/04 11:05:59;;;;;;;7.70;4.40;;;;;;;;;;5066963;28;20032;-61
2021/11/04 11:08:26;;;;;;;6.97;4.07;;;;;;;;;;5067485;28;20094;-61
2021/11/04 11:10:53;;;;;;;6.37;3.83;;;;;;;;;;5067541;28;20720;-60
2021/11/04 11:13:20;;;;;;;8.43;5.00;;;;;;;;;;5069378;28;20029;-60
2021/11/04 11:15:52;;;;;;;7.23;4.13;;;;;;;;;;5071518;28;20028;-61
2021/11/04 11:18:21;;;;;;;5.20;3.50;;;;;;;;;;5071065;28;20373;-60
2021/11/04 11:20:48;;;;;;;8.13;3.70;;;;;;;;;;5072144;28;20032;-61
2021/11/04 11:23:16;;;;;;;5.43;3.63;;;;;;;;;;5072165;28;20032;-61
2021/11/04 11:25:44;;;;;;;5.97;3.77;;;;;;;;;;5069530;28;20257;-61
2021/11/04 11:28:10;;;;;;;7.40;3.93;;;;;;;;;;5067133;28;20280;-61
2021/11/04 11:30:37;;;;;;;9.30;3.83;;;;;;;;;;5066882;28;20265;-61
2021/11/04 11:33:18;;;;;;;7.67;4.70;;;;;;;;;;5067433;28;20270;-61
2021/11/04 11:36:05;;;;;;;5.93;3.73;;;;;;;;;;5069848;28;20269;-61
2021/11/04 11:38:31;;;;;;;12.03;4.77;;;;;;;;;;5072182;28;20321;-61
2021/11/04 11:41:02;;;;;;;7.13;4.60;;;;;;;;;;5071828;28;20245;-61
2021/11/04 11:43:49;;;;;;;7.83;4.67;;;;;;;;;;5071865;28;20296;-61
2021/11/04 11:46:16;;;;;;;10.40;5.20;;;;;;;;;;5072213;28;20261;-61
2021/11/04 11:48:42;;;;;;;5.90;3.63;;;;;;;;;;5067536;28;20262;-61
2021/11/04 11:51:09;;;;;;;6.63;3.70;;;;;;;;;;5067052;28;20261;-61
2021/11/04 11:53:41;;;;;;;9.10;4.80;;;;;;;;;;5065979;28;20348;-61
2021/11/04 11:56:21;;;;;;;6.97;4.47;;;;;;;;;;5066920;28;20269;-61
2021/11/04 11:58:48;;;;;;;8.20;4.17;;;;;;;;;;5071468;28;20288;-61
2021/11/04 12:01:19;;;;;;;6.03;4.10;;;;;;;;;;5071994;28;20283;-61
2021/11/04 12:03:49;;;;;;;5.57;3.37;;;;;;;;;;5069325;28;20336;-60
2021/11/04 12:06:16;;;;;;;6.57;4.30;;;;;;;;;;5072035;28;20732;-61
2021/11/04 12:08:53;;;;;;;10.60;4.40;;;;;;;;;;5072081;28;20254;-60
2021/11/04 12:11:41;;;;;;;6.00;3.63;;;;;;;;;;5066464;28;21068;-61
2021/11/04 12:14:16;;;;;;;6.03;3.73;;;;;;;;;;5066901;28;20287;-60
2021/11/04 12:17:02;;;;;;;9.13;4.27;;;;;;;;;;5066945;28;20257;-61
2021/11/04 12:19:47;;;;;;;7.60;4.43;;;;;;;;;;5067711;28;20613;-60
2021/11/04 12:22:24;;;;;;;7.45;4.22;;;;;;;;;;5071990;28;20037;-61
2021/11/04 12:24:51;;;;;;;6.43;4.93;;;;;;;;;;5071756;28;20021;-62
2021/11/04 12:27:18;;;;;;;6.30;4.40;;;;;;;;;;5074029;28;20747;-61
2021/11/04 12:29:48;;;;;;;8.50;5.70;;;;;;;;;;5075040;28;20258;-61
2021/11/04 12:32:16;;;;;;;8.00;4.73;;;;;;;;;;5072256;28;20258;-61
2021/11/04 12:34:44;;;;;;;7.00;4.57;;;;;;;;;;5070268;28;20277;-61
2021/11/04 12:37:12;;;;;;;8.27;4.10;;;;;;;;;;5069709;28;20352;-61
2021/11/04 12:39:44;;;;;;;13.67;4.17;;;;;;;;;;5070054;28;20364;-60
2021/11/04 12:42:14;;;;;;;7.30;5.17;;;;;;;;;;5072843;28;20578;-61
2021/11/04 12:44:41;;;;;;;8.27;5.70;;;;;;;;;;5074808;28;20624;-61
2021/11/04 12:47:08;;;;;;;8.63;5.00;;;;;;;;;;5074785;28;20276;-61
2021/11/04 12:49:37;;;;;;;8.00;5.27;;;;;;;;;;5074686;28;20268;-60
2021/11/04 12:52:06;;;;;;;7.20;4.80;;;;;;;;;;5074955;28;20265;-60
2021/11/04 12:54:34;;;;;;;5.90;3.97;;;;;;;;;;5071711;28;21044;-61
2021/11/04 12:57:08;;;;;;;6.33;4.10;;;;;;;;;;5069766;28;20765;-60
2021/11/04 12:59:46;;;;;;;8.43;5.30;;;;;;;;;;5069831;28;20770;-61
2021/11/04 13:02:15;;;;;;;11.83;5.07;;;;;;;;;;5069753;28;20258;-60
2021/11/04 13:04:41;;;;;;;14.00;4.77;;;;;;;;;;5072575;28;20249;-61
2021/11/04 13:07:10;;;;;;;8.80;4.77;;;;;;;;;;5074891;28;20592;-60
2021/11/04 13:09:56;;;;;;;12.07;5.30;;;;;;;;;;5074169;28;20268;-61
2021/11/04 13:12:23;;;;;;;9.67;4.97;;;;;;;;;;5074800;28;20261;-60
2021/11/04 13:15:13;;;;;;;13.50;5.83;;;;;;;;;;5074498;28;20395;-60
2021/11/04 13:17:42;;;;;;;15.63;6.23;;;;;;;;;;5056423;28;20620;-61
2021/11/04 13:20:13;;;;;;;10.53;6.03;;;;;;;;;;5069277;28;20361;-61
2021/11/04 13:22:42;;;;;;;8.43;5.60;;;;;;;;;;5069567;28;20265;-61
2021/11/04 13:25:12;;;;;;;11.43;5.83;;;;;;;;;;5069200;28;20261;-61
2021/11/04 13:27:41;;;;;;;10.63;5.60;;;;;;;;;;5073944;28;20265;-61
2021/11/04 13:30:09;;;;;;;7.70;5.43;;;;;;;;;;5073954;28;20258;-61
2021/11/04 13:32:36;;;;;;;10.40;5.10;;;;;;;;;;5074245;28;20250;-61
2021/11/04 13:35:04;;;;;;;8.97;5.70;;;;;;;;;;5073828;28;20635;-61
2021/11/04 13:37:33;;;;;;;11.77;6.20;;;;;;;;;;5073910;28;20012;-61
2021/11/04 13:40:04;;;;;;;9.53;6.40;;;;;;;;;;5068372;28;20025;-61
2021/11/04 13:42:39;;;;;;;11.80;6.13;;;;;;;;;;5068774;28;20366;-61
2021/11/04 13:45:19;;;;;;;22.80;9.13;;;;;;;;;;5068680;28;20020;-61
2021/11/04 13:47:47;;;;;;;14.63;6.80;;;;;;;;;;5069154;28;20027;-61
2021/11/04 13:50:15;;;;;;;14.67;7.83;;;;;;;;;;5074058;28;20375;-61
2021/11/04 13:52:42;;;;;;;12.43;6.43;;;;;;;;;;5073734;28;20052;-61
2021/11/04 13:55:25;;;;;;;10.60;6.70;;;;;;;;;;5073455;28;20032;-61
2021/11/04 13:57:53;;;;;;;9.70;5.83;;;;;;;;;;5073924;28;20029;-61
2021/11/04 14:00:22;;;;;;;11.90;6.90;;;;;;;;;;5071942;28;20519;-61
2021/11/04 14:02:49;;;;;;;7.57;5.77;;;;;;;;;;5068368;28;20025;-62
2021/11/04 14:05:16;;;;;;;9.07;5.80;;;;;;;;;;5068243;28;20035;-62
2021/11/04 14:07:48;;;;;;;10.07;6.17;;;;;;;;;;5068731;28;20081;-62
2021/11/04 14:10:28;;;;;;;11.60;5.80;;;;;;;;;;5069227;28;20020;-62
2021/11/04 14:13:00;;;;;;;9.00;6.37;;;;;;;;;;5047811;28;20047;-61
2021/11/04 14:15:26;;;;;;;10.30;7.50;;;;;;;;;;5053096;28;20025;-62
2021/11/04 14:17:56;;;;;;;11.23;7.33;;;;;;;;;;5053495;28;20013;-61
2021/11/04 14:20:27;;;;;;;10.77;6.97;;;;;;;;;;5054507;28;20048;-62
2021/11/04 14:22:54;;;;;;;14.10;9.53;;;;;;;;;;5070982;28;20020;-61
2021/11/04 14:25:21;;;;;;;15.77;8.77;;;;;;;;;;5067248;28;20036;-62
2021/11/04 14:28:03;;;;;;;22.27;9.13;;;;;;;;;;5067811;28;20119;-62
2021/11/04 14:30:31;;;;;;;12.33;7.23;;;;;;;;;;5068001;28;20021;-61
2021/11/04 14:32:58;;;;;;;16.87;8.30;;;;;;;;;;5070203;28;20024;-62
2021/11/04 14:35:25;;;;;;;11.90;8.73;;;;;;;;;;5072836;28;20574;-62
2021/11/04 14:37:52;;;;;;;16.70;8.83;;;;;;;;;;5073144;28;20483;-62
2021/11/04 14:40:19;;;;;;;14.90;8.73;;;;;;;;;;5072623;28;20458;-62
2021/11/04 14:42:45;;;;;;;15.77;10.10;;;;;;;;;;5073187;28;20103;-62
2021/11/04 14:45:19;;;;;;;11.57;6.33;;;;;;;;;;5070054;28;20020;-62
2021/11/04 14:47:46;;;;;;;10.70;8.33;;;;;;;;;;5067684;28;20463;-62